createdAt,value
2023-02-22T00:00:50.161Z,1010.72
2023-02-22T00:01:50.061Z,1010.72
2023-02-22T00:02:50.010Z,1010.70
2023-02-22T00:03:50.029Z,1010.69
2023-02-22T00:04:49.978Z,1010.67
2023-02-22T00:05:49.962Z,1010.67
2023-02-22T00:06:50.015Z,1010.66
2023-02-22T00:07:49.952Z,1010.67
2023-02-22T00:08:49.936Z,1010.65
2023-02-22T00:09:49.926Z,1010.64
2023-02-22T00:10:49.895Z,1010.63
2023-02-22T00:11:49.904Z,1010.61
2023-02-22T00:12:49.912Z,1010.60
2023-02-22T00:13:49.894Z,1010.59
2023-02-22T00:14:49.861Z,1010.58
2023-02-22T00:15:49.889Z,1010.57
2023-02-22T00:16:49.834Z,1010.56
2023-02-22T00:17:49.865Z,1010.55
2023-02-22T00:18:49.852Z,1010.54
2023-02-22T00:19:49.818Z,1010.53
2023-02-22T00:20:49.797Z,1010.53
2023-02-22T00:21:49.809Z,1010.53
2023-02-22T00:22:49.794Z,1010.52
2023-02-22T00:23:49.782Z,1010.51
2023-02-22T00:24:49.748Z,1010.50
2023-02-22T00:25:49.771Z,1010.49
2023-02-22T00:26:49.762Z,1010.48
2023-02-22T00:27:49.749Z,1010.48
2023-02-22T00:28:49.734Z,1010.48
2023-02-22T00:29:49.689Z,1010.47
2023-02-22T00:30:49.708Z,1010.48
2023-02-22T00:31:49.791Z,1010.48
2023-02-22T00:32:49.687Z,1010.48
2023-02-22T00:33:49.672Z,1010.48
2023-02-22T00:34:49.655Z,1010.47
2023-02-22T00:35:49.657Z,1010.47
2023-02-22T00:36:49.709Z,1010.46
2023-02-22T00:37:49.638Z,1010.46
2023-02-22T00:38:49.622Z,1010.45
2023-02-22T00:39:49.613Z,1010.45
2023-02-22T00:40:49.578Z,1010.44
2023-02-22T00:41:49.621Z,1010.44
2023-02-22T00:42:49.558Z,1010.44
2023-02-22T00:43:49.598Z,1010.44
2023-02-22T00:44:49.539Z,1010.44
2023-02-22T00:45:49.574Z,1010.44
2023-02-22T00:46:49.511Z,1010.42
2023-02-22T00:47:49.576Z,1010.39
2023-02-22T00:48:49.507Z,1010.37
2023-02-22T00:49:49.513Z,1010.35
2023-02-22T00:50:49.471Z,1010.32
2023-02-22T00:51:49.539Z,1010.30
2023-02-22T00:52:49.476Z,1010.28
2023-02-22T00:53:49.483Z,1010.25
2023-02-22T00:54:49.444Z,1010.23
2023-02-22T00:55:49.440Z,1010.23
2023-02-22T00:56:49.417Z,1010.23
2023-02-22T00:57:49.421Z,1010.22
2023-02-22T00:58:49.453Z,1010.22
2023-02-22T00:59:49.432Z,1010.22
2023-02-22T01:00:49.445Z,1010.23
2023-02-22T01:01:49.387Z,1010.25
2023-02-22T01:02:49.341Z,1010.25
2023-02-22T01:03:49.365Z,1010.26
2023-02-22T01:04:49.340Z,1010.27
2023-02-22T01:05:49.329Z,1010.29
2023-02-22T01:06:49.326Z,1010.30
2023-02-22T01:07:49.328Z,1010.28
2023-02-22T01:08:49.349Z,1010.27
2023-02-22T01:09:49.289Z,1010.25
2023-02-22T01:10:49.275Z,1010.23
2023-02-22T01:11:49.264Z,1010.21
2023-02-22T01:12:49.263Z,1010.19
2023-02-22T01:13:49.277Z,1010.17
2023-02-22T01:14:49.229Z,1010.16
2023-02-22T01:15:49.246Z,1010.16
2023-02-22T01:16:49.269Z,1010.16
2023-02-22T01:17:49.210Z,1010.15
2023-02-22T01:18:49.198Z,1010.13
2023-02-22T01:19:49.179Z,1010.11
2023-02-22T01:20:49.187Z,1010.10
2023-02-22T01:21:49.186Z,1010.11
2023-02-22T01:22:49.171Z,1010.10
2023-02-22T01:23:49.143Z,1010.08
2023-02-22T01:24:49.146Z,1010.08
2023-02-22T01:25:49.117Z,1010.08
2023-02-22T01:26:49.154Z,1010.08
2023-02-22T01:27:49.083Z,1010.05
2023-02-22T01:28:49.104Z,1010.04
2023-02-22T01:29:49.105Z,1010.03
2023-02-22T01:30:49.204Z,1010.03
2023-02-22T01:31:49.068Z,1010.02
2023-02-22T01:32:49.066Z,1010.01
2023-02-22T01:33:49.103Z,1009.99
2023-02-22T01:34:49.007Z,1009.98
2023-02-22T01:35:49.061Z,1009.97
2023-02-22T01:36:49.013Z,1009.95
2023-02-22T01:37:48.990Z,1009.93
2023-02-22T01:38:48.995Z,1009.91
2023-02-22T01:39:49.031Z,1009.90
2023-02-22T01:40:49.002Z,1009.89
2023-02-22T01:41:48.994Z,1009.89
2023-02-22T01:42:48.953Z,1009.88
2023-02-22T01:43:48.937Z,1009.87
2023-02-22T01:44:48.936Z,1009.87
2023-02-22T01:45:49.032Z,1009.85
2023-02-22T01:46:48.901Z,1009.84
2023-02-22T01:47:48.880Z,1009.83
2023-02-22T01:48:48.877Z,1009.83
2023-02-22T01:49:48.931Z,1009.84
2023-02-22T01:50:48.956Z,1009.84
2023-02-22T01:51:48.850Z,1009.82
2023-02-22T01:52:48.837Z,1009.82
2023-02-22T01:53:48.820Z,1009.83
2023-02-22T01:54:48.855Z,1009.81
2023-02-22T01:55:48.827Z,1009.79
2023-02-22T01:56:48.780Z,1009.78
2023-02-22T01:57:48.799Z,1009.77
2023-02-22T01:58:48.760Z,1009.77
2023-02-22T01:59:48.784Z,1009.76
2023-02-22T02:00:48.810Z,1009.77
2023-02-22T02:02:07.455Z,1009.77
2023-02-22T02:02:49.067Z,1009.77
2023-02-22T02:03:49.096Z,1009.78
2023-02-22T02:04:48.955Z,1009.78
2023-02-22T02:05:48.834Z,1009.79
2023-02-22T02:06:48.825Z,1009.79
2023-02-22T02:07:48.712Z,1009.79
2023-02-22T02:08:48.742Z,1009.79
2023-02-22T02:09:48.699Z,1009.79
2023-02-22T02:10:48.721Z,1009.80
2023-02-22T02:11:48.687Z,1009.81
2023-02-22T02:12:48.844Z,1009.79
2023-02-22T02:13:48.655Z,1009.78
2023-02-22T02:14:48.731Z,1009.78
2023-02-22T02:15:48.680Z,1009.75
2023-02-22T02:16:48.760Z,1009.74
2023-02-22T02:17:48.633Z,1009.74
2023-02-22T02:18:48.680Z,1009.74
2023-02-22T02:19:48.665Z,1009.74
2023-02-22T02:20:48.651Z,1009.73
2023-02-22T02:21:48.634Z,1009.72
2023-02-22T02:22:48.705Z,1009.72
2023-02-22T02:23:48.558Z,1009.72
2023-02-22T02:24:48.615Z,1009.72
2023-02-22T02:25:48.602Z,1009.71
2023-02-22T02:26:48.666Z,1009.70
2023-02-22T02:27:48.548Z,1009.69
2023-02-22T02:28:48.531Z,1009.67
2023-02-22T02:29:48.522Z,1009.68
2023-02-22T02:30:48.529Z,1009.66
2023-02-22T02:31:48.683Z,1009.65
2023-02-22T02:32:48.540Z,1009.63
2023-02-22T02:33:48.532Z,1009.63
2023-02-22T02:34:48.521Z,1009.62
2023-02-22T02:35:48.548Z,1009.62
2023-02-22T02:36:48.432Z,1009.61
2023-02-22T02:37:48.461Z,1009.58
2023-02-22T02:38:48.479Z,1009.57
2023-02-22T02:39:48.453Z,1009.55
2023-02-22T02:40:48.461Z,1009.54
2023-02-22T02:41:48.459Z,1009.52
2023-02-22T02:42:48.446Z,1009.50
2023-02-22T02:43:48.394Z,1009.50
2023-02-22T02:44:48.401Z,1009.48
2023-02-22T02:45:48.426Z,1009.46
2023-02-22T02:46:48.409Z,1009.46
2023-02-22T02:47:48.372Z,1009.44
2023-02-22T02:48:48.329Z,1009.42
2023-02-22T02:49:48.408Z,1009.41
2023-02-22T02:50:48.295Z,1009.39
2023-02-22T02:51:48.294Z,1009.38
2023-02-22T02:52:48.300Z,1009.35
2023-02-22T02:53:48.302Z,1009.32
2023-02-22T02:54:48.312Z,1009.30
2023-02-22T02:55:48.308Z,1009.28
2023-02-22T02:56:48.386Z,1009.26
2023-02-22T02:57:48.214Z,1009.25
2023-02-22T02:58:48.247Z,1009.24
2023-02-22T02:59:48.231Z,1009.23
2023-02-22T03:00:48.253Z,1009.21
2023-02-22T03:01:48.206Z,1009.20
2023-02-22T03:02:48.243Z,1009.20
2023-02-22T03:03:48.202Z,1009.19
2023-02-22T03:04:48.232Z,1009.18
2023-02-22T03:05:48.267Z,1009.18
2023-02-22T03:06:48.163Z,1009.16
2023-02-22T03:07:48.202Z,1009.16
2023-02-22T03:08:48.209Z,1009.14
2023-02-22T03:09:48.226Z,1009.14
2023-02-22T03:10:48.160Z,1009.14
2023-02-22T03:11:48.149Z,1009.13
2023-02-22T03:12:48.172Z,1009.11
2023-02-22T03:13:48.091Z,1009.08
2023-02-22T03:14:48.061Z,1009.04
2023-02-22T03:15:48.043Z,1009.02
2023-02-22T03:16:48.049Z,1009.01
2023-02-22T03:17:47.994Z,1009.02
2023-02-22T03:18:48.142Z,1009.02
2023-02-22T03:19:48.029Z,1009.02
2023-02-22T03:20:48.019Z,1009.02
2023-02-22T03:21:48.047Z,1009.02
2023-02-22T03:22:48.063Z,1009.00
2023-02-22T03:23:48.042Z,1008.99
2023-02-22T03:24:47.996Z,1008.98
2023-02-22T03:25:47.967Z,1008.97
2023-02-22T03:26:47.930Z,1008.96
2023-02-22T03:27:47.974Z,1008.96
2023-02-22T03:28:48.086Z,1008.95
2023-02-22T03:29:47.979Z,1008.95
2023-02-22T03:30:47.993Z,1008.93
2023-02-22T03:31:47.986Z,1008.91
2023-02-22T03:32:48.038Z,1008.90
2023-02-22T03:33:47.848Z,1008.90
2023-02-22T03:34:47.868Z,1008.90
2023-02-22T03:35:47.825Z,1008.90
2023-02-22T03:36:47.785Z,1008.89
2023-02-22T03:37:47.831Z,1008.88
2023-02-22T03:38:47.802Z,1008.86
2023-02-22T03:39:47.764Z,1008.85
2023-02-22T03:40:47.785Z,1008.85
2023-02-22T03:41:47.759Z,1008.84
2023-02-22T03:42:47.740Z,1008.84
2023-02-22T03:43:47.964Z,1008.84
2023-02-22T03:44:47.752Z,1008.83
2023-02-22T03:45:47.835Z,1008.82
2023-02-22T03:46:47.753Z,1008.81
2023-02-22T03:47:47.780Z,1008.80
2023-02-22T03:48:47.816Z,1008.79
2023-02-22T03:49:47.786Z,1008.78
2023-02-22T03:50:47.775Z,1008.78
2023-02-22T03:51:47.846Z,1008.79
2023-02-22T03:52:47.697Z,1008.80
2023-02-22T03:53:47.738Z,1008.81
2023-02-22T03:54:47.745Z,1008.79
2023-02-22T03:55:47.786Z,1008.80
2023-02-22T03:56:47.688Z,1008.81
2023-02-22T03:57:47.612Z,1008.81
2023-02-22T03:58:47.703Z,1008.81
2023-02-22T03:59:47.629Z,1008.81
2023-02-22T04:00:47.618Z,1008.80
2023-02-22T04:01:47.668Z,1008.80
2023-02-22T04:02:47.569Z,1008.82
2023-02-22T04:03:47.594Z,1008.81
2023-02-22T04:04:47.784Z,1008.80
2023-02-22T04:05:47.628Z,1008.80
2023-02-22T04:06:47.520Z,1008.79
2023-02-22T04:07:47.598Z,1008.79
2023-02-22T04:08:47.560Z,1008.78
2023-02-22T04:09:47.551Z,1008.77
2023-02-22T04:10:47.511Z,1008.76
2023-02-22T04:11:47.501Z,1008.76
2023-02-22T04:12:47.473Z,1008.76
2023-02-22T04:13:47.492Z,1008.75
2023-02-22T04:14:47.574Z,1008.75
2023-02-22T04:15:47.495Z,1008.75
2023-02-22T04:16:47.434Z,1008.76
2023-02-22T04:17:47.425Z,1008.77
2023-02-22T04:18:47.440Z,1008.77
2023-02-22T04:19:47.406Z,1008.77
2023-02-22T04:20:47.414Z,1008.77
2023-02-22T04:21:47.373Z,1008.77
2023-02-22T04:22:47.515Z,1008.77
2023-02-22T04:23:47.382Z,1008.77
2023-02-22T04:24:47.382Z,1008.77
2023-02-22T04:25:47.328Z,1008.77
2023-02-22T04:26:47.385Z,1008.78
2023-02-22T04:27:47.352Z,1008.81
2023-02-22T04:28:47.297Z,1008.83
2023-02-22T04:29:47.330Z,1008.84
2023-02-22T04:30:47.355Z,1008.85
2023-02-22T04:31:47.379Z,1008.84
2023-02-22T04:32:47.309Z,1008.84
2023-02-22T04:33:47.344Z,1008.83
2023-02-22T04:34:47.279Z,1008.83
2023-02-22T04:35:47.291Z,1008.83
2023-02-22T04:36:47.197Z,1008.81
2023-02-22T04:37:47.278Z,1008.80
2023-02-22T04:38:47.232Z,1008.79
2023-02-22T04:39:47.780Z,1008.78
2023-02-22T04:40:47.177Z,1008.78
2023-02-22T04:41:47.286Z,1008.78
2023-02-22T04:42:47.179Z,1008.77
2023-02-22T04:43:47.202Z,1008.78
2023-02-22T04:44:47.204Z,1008.77
2023-02-22T04:45:47.224Z,1008.76
2023-02-22T04:46:47.162Z,1008.74
2023-02-22T04:47:47.102Z,1008.73
2023-02-22T04:48:47.130Z,1008.73
2023-02-22T04:49:47.123Z,1008.72
2023-02-22T04:50:47.155Z,1008.71
2023-02-22T04:51:47.122Z,1008.70
2023-02-22T04:52:47.150Z,1008.68
2023-02-22T04:53:47.201Z,1008.69
2023-02-22T04:54:47.069Z,1008.70
2023-02-22T04:55:47.073Z,1008.71
2023-02-22T04:56:47.022Z,1008.71
2023-02-22T04:57:47.072Z,1008.71
2023-02-22T04:58:47.047Z,1008.72
2023-02-22T04:59:47.010Z,1008.71
2023-02-22T05:00:46.998Z,1008.71
2023-02-22T05:01:47.147Z,1008.71
2023-02-22T05:02:47.099Z,1008.68
2023-02-22T05:03:47.123Z,1008.67
2023-02-22T05:04:47.050Z,1008.67
2023-02-22T05:05:46.972Z,1008.66
2023-02-22T05:06:46.997Z,1008.68
2023-02-22T05:07:46.963Z,1008.68
2023-02-22T05:08:46.941Z,1008.67
2023-02-22T05:09:46.903Z,1008.67
2023-02-22T05:10:46.950Z,1008.65
2023-02-22T05:11:46.928Z,1008.65
2023-02-22T05:12:46.947Z,1008.65
2023-02-22T05:13:46.959Z,1008.65
2023-02-22T05:14:46.999Z,1008.64
2023-02-22T05:15:46.952Z,1008.63
2023-02-22T05:16:46.852Z,1008.63
2023-02-22T05:17:46.871Z,1008.63
2023-02-22T05:18:46.828Z,1008.63
2023-02-22T05:19:46.821Z,1008.63
2023-02-22T05:20:46.793Z,1008.63
2023-02-22T05:21:46.857Z,1008.61
2023-02-22T05:22:46.819Z,1008.61
2023-02-22T05:23:46.842Z,1008.60
2023-02-22T05:24:46.760Z,1008.59
2023-02-22T05:25:46.770Z,1008.58
2023-02-22T05:26:46.842Z,1008.57
2023-02-22T05:27:46.836Z,1008.56
2023-02-22T05:28:46.873Z,1008.54
2023-02-22T05:29:46.751Z,1008.52
2023-02-22T05:30:46.965Z,1008.50
2023-02-22T05:31:46.830Z,1008.50
2023-02-22T05:32:47.165Z,1008.50
2023-02-22T05:33:46.717Z,1008.50
2023-02-22T05:34:46.882Z,1008.49
2023-02-22T05:35:46.658Z,1008.47
2023-02-22T05:36:46.665Z,1008.47
2023-02-22T05:37:46.770Z,1008.46
2023-02-22T05:38:46.637Z,1008.44
2023-02-22T05:39:46.632Z,1008.42
2023-02-22T05:40:46.692Z,1008.41
2023-02-22T05:41:46.577Z,1008.40
2023-02-22T05:42:48.890Z,1008.40
2023-02-22T05:43:46.614Z,1008.39
2023-02-22T05:44:46.661Z,1008.39
2023-02-22T05:45:46.558Z,1008.40
2023-02-22T05:46:46.612Z,1008.39
2023-02-22T05:47:46.550Z,1008.38
2023-02-22T05:48:46.514Z,1008.38
2023-02-22T05:49:46.526Z,1008.37
2023-02-22T05:50:46.544Z,1008.34
2023-02-22T05:51:46.501Z,1008.33
2023-02-22T05:52:46.496Z,1008.34
2023-02-22T05:53:46.519Z,1008.35
2023-02-22T05:54:46.508Z,1008.34
2023-02-22T05:55:46.685Z,1008.32
2023-02-22T05:56:46.492Z,1008.31
2023-02-22T05:57:46.488Z,1008.30
2023-02-22T05:58:46.416Z,1008.30
2023-02-22T05:59:46.409Z,1008.29
2023-02-22T06:00:46.505Z,1008.29
2023-02-22T06:01:46.456Z,1008.28
2023-02-22T06:02:46.406Z,1008.27
2023-02-22T06:03:46.355Z,1008.27
2023-02-22T06:04:46.404Z,1008.28
2023-02-22T06:05:46.381Z,1008.27
2023-02-22T06:06:46.274Z,1008.28
2023-02-22T06:07:46.388Z,1008.28
2023-02-22T06:08:46.365Z,1008.27
2023-02-22T06:09:46.436Z,1008.27
2023-02-22T06:10:46.284Z,1008.27
2023-02-22T06:11:46.327Z,1008.26
2023-02-22T06:12:46.340Z,1008.26
2023-02-22T06:13:46.255Z,1008.26
2023-02-22T06:14:46.233Z,1008.25
2023-02-22T06:15:46.241Z,1008.25
2023-02-22T06:16:46.241Z,1008.25
2023-02-22T06:17:46.217Z,1008.26
2023-02-22T06:18:46.159Z,1008.25
2023-02-22T06:19:46.188Z,1008.25
2023-02-22T06:20:46.281Z,1008.24
2023-02-22T06:21:46.151Z,1008.24
2023-02-22T06:22:46.147Z,1008.24
2023-02-22T06:23:46.124Z,1008.24
2023-02-22T06:24:46.129Z,1008.24
2023-02-22T06:25:46.158Z,1008.23
2023-02-22T06:26:46.125Z,1008.22
2023-02-22T06:27:46.091Z,1008.21
2023-02-22T06:28:46.080Z,1008.21
2023-02-22T06:29:46.045Z,1008.20
2023-02-22T06:30:46.083Z,1008.20
2023-02-22T06:31:46.116Z,1008.20
2023-02-22T06:32:46.005Z,1008.21
2023-02-22T06:33:46.003Z,1008.21
2023-02-22T06:34:45.998Z,1008.22
2023-02-22T06:35:45.992Z,1008.23
2023-02-22T06:36:46.061Z,1008.25
2023-02-22T06:37:45.987Z,1008.27
2023-02-22T06:38:46.005Z,1008.29
2023-02-22T06:39:46.068Z,1008.29
2023-02-22T06:40:46.055Z,1008.31
2023-02-22T06:41:45.992Z,1008.31
2023-02-22T06:42:45.981Z,1008.32
2023-02-22T06:43:45.968Z,1008.31
2023-02-22T06:44:45.964Z,1008.30
2023-02-22T06:45:46.052Z,1008.29
2023-02-22T06:46:45.893Z,1008.28
2023-02-22T06:47:45.913Z,1008.28
2023-02-22T06:48:45.924Z,1008.26
2023-02-22T06:49:45.901Z,1008.25
2023-02-22T06:50:45.829Z,1008.24
2023-02-22T06:51:45.885Z,1008.25
2023-02-22T06:52:45.888Z,1008.25
2023-02-22T06:53:45.905Z,1008.25
2023-02-22T06:54:45.844Z,1008.25
2023-02-22T06:55:45.858Z,1008.25
2023-02-22T06:56:45.831Z,1008.24
2023-02-22T06:57:45.833Z,1008.25
2023-02-22T06:58:45.796Z,1008.26
2023-02-22T06:59:45.828Z,1008.28
2023-02-22T07:00:45.816Z,1008.27
2023-02-22T07:01:45.769Z,1008.28
2023-02-22T07:02:45.803Z,1008.28
2023-02-22T07:03:45.817Z,1008.28
2023-02-22T07:04:45.841Z,1008.28
2023-02-22T07:05:45.729Z,1008.28
2023-02-22T07:06:45.750Z,1008.29
2023-02-22T07:07:45.697Z,1008.29
2023-02-22T07:08:45.774Z,1008.29
2023-02-22T07:09:45.689Z,1008.30
2023-02-22T07:10:45.632Z,1008.30
2023-02-22T07:11:45.708Z,1008.29
2023-02-22T07:12:52.623Z,1008.29
2023-02-22T07:13:45.617Z,1008.28
2023-02-22T07:14:45.604Z,1008.28
2023-02-22T07:15:45.567Z,1008.28
2023-02-22T07:16:45.684Z,1008.28
2023-02-22T07:17:45.561Z,1008.28
2023-02-22T07:18:45.552Z,1008.27
2023-02-22T07:19:45.885Z,1008.28
2023-02-22T07:20:45.507Z,1008.28
2023-02-22T07:21:45.575Z,1008.28
2023-02-22T07:22:45.553Z,1008.28
2023-02-22T07:23:45.495Z,1008.28
2023-02-22T07:24:45.479Z,1008.29
2023-02-22T07:25:45.517Z,1008.29
2023-02-22T07:26:45.636Z,1008.28
2023-02-22T07:27:45.511Z,1008.26
2023-02-22T07:28:45.509Z,1008.26
2023-02-22T07:29:45.429Z,1008.24
2023-02-22T07:30:45.598Z,1008.23
2023-02-22T07:31:45.400Z,1008.22
2023-02-22T07:32:45.488Z,1008.22
2023-02-22T07:33:45.399Z,1008.21
2023-02-22T07:34:45.407Z,1008.20
2023-02-22T07:35:45.400Z,1008.20
2023-02-22T07:36:45.388Z,1008.21
2023-02-22T07:37:45.371Z,1008.21
2023-02-22T07:38:45.368Z,1008.20
2023-02-22T07:39:45.344Z,1008.19
2023-02-22T07:40:45.367Z,1008.19
2023-02-22T07:41:45.337Z,1008.19
2023-02-22T07:42:45.316Z,1008.19
2023-02-22T07:43:45.359Z,1008.20
2023-02-22T07:44:45.550Z,1008.20
2023-02-22T07:45:45.370Z,1008.21
2023-02-22T07:46:45.279Z,1008.21
2023-02-22T07:47:45.235Z,1008.22
2023-02-22T07:48:45.254Z,1008.21
2023-02-22T07:49:45.268Z,1008.21
2023-02-22T07:50:45.248Z,1008.22
2023-02-22T07:51:45.265Z,1008.23
2023-02-22T07:52:45.230Z,1008.23
2023-02-22T07:53:45.191Z,1008.23
2023-02-22T07:54:45.204Z,1008.23
2023-02-22T07:55:45.169Z,1008.23
2023-02-22T07:56:45.158Z,1008.23
2023-02-22T07:57:45.149Z,1008.24
2023-02-22T07:58:45.136Z,1008.24
2023-02-22T07:59:45.487Z,1008.26
2023-02-22T08:00:45.298Z,1008.27
2023-02-22T08:01:45.141Z,1008.27
2023-02-22T08:02:45.163Z,1008.26
2023-02-22T08:03:45.131Z,1008.24
2023-02-22T08:04:45.116Z,1008.23
2023-02-22T08:05:45.109Z,1008.22
2023-02-22T08:06:45.113Z,1008.21
2023-02-22T08:07:45.041Z,1008.20
2023-02-22T08:08:45.033Z,1008.18
2023-02-22T08:09:45.034Z,1008.18
2023-02-22T08:10:45.212Z,1008.18
2023-02-22T08:11:45.024Z,1008.18
2023-02-22T08:12:45.035Z,1008.17
2023-02-22T08:13:45.000Z,1008.16
2023-02-22T08:14:44.974Z,1008.15
2023-02-22T08:15:44.971Z,1008.15
2023-02-22T08:16:45.058Z,1008.16
2023-02-22T08:17:44.950Z,1008.16
2023-02-22T08:18:45.097Z,1008.15
2023-02-22T08:19:44.932Z,1008.13
2023-02-22T08:20:44.933Z,1008.11
2023-02-22T08:21:44.896Z,1008.11
2023-02-22T08:22:44.914Z,1008.09
2023-02-22T08:23:44.889Z,1008.08
2023-02-22T08:24:44.886Z,1008.06
2023-02-22T08:25:44.864Z,1008.03
2023-02-22T08:26:44.877Z,1008.02
2023-02-22T08:27:44.848Z,1008.01
2023-02-22T08:28:44.849Z,1007.99
2023-02-22T08:29:44.945Z,1007.99
2023-02-22T08:30:45.017Z,1007.98
2023-02-22T08:31:44.987Z,1007.98
2023-02-22T08:32:44.981Z,1007.96
2023-02-22T08:33:44.769Z,1007.94
2023-02-22T08:34:44.801Z,1007.93
2023-02-22T08:35:44.770Z,1007.92
2023-02-22T08:36:44.769Z,1007.91
2023-02-22T08:37:44.736Z,1007.90
2023-02-22T08:38:44.712Z,1007.90
2023-02-22T08:39:44.736Z,1007.91
2023-02-22T08:40:44.770Z,1007.91
2023-02-22T08:41:44.717Z,1007.90
2023-02-22T08:42:44.692Z,1007.89
2023-02-22T08:43:44.668Z,1007.89
2023-02-22T08:44:44.680Z,1007.90
2023-02-22T08:45:44.722Z,1007.90
2023-02-22T08:46:44.660Z,1007.90
2023-02-22T08:47:44.683Z,1007.91
2023-02-22T08:48:44.624Z,1007.92
2023-02-22T08:49:44.647Z,1007.92
2023-02-22T08:50:44.658Z,1007.92
2023-02-22T08:51:44.638Z,1007.92
2023-02-22T08:52:44.589Z,1007.91
2023-02-22T08:53:44.579Z,1007.90
2023-02-22T08:54:44.550Z,1007.89
2023-02-22T08:55:44.554Z,1007.88
2023-02-22T08:56:44.533Z,1007.88
2023-02-22T08:57:44.556Z,1007.88
2023-02-22T08:58:44.526Z,1007.87
2023-02-22T08:59:44.504Z,1007.88
2023-02-22T09:00:44.496Z,1007.87
2023-02-22T09:01:44.558Z,1007.87
2023-02-22T09:02:44.538Z,1007.86
2023-02-22T09:03:44.503Z,1007.86
2023-02-22T09:04:44.486Z,1007.85
2023-02-22T09:05:44.582Z,1007.84
2023-02-22T09:06:44.457Z,1007.85
2023-02-22T09:07:44.423Z,1007.84
2023-02-22T09:08:44.420Z,1007.84
2023-02-22T09:09:44.431Z,1007.83
2023-02-22T09:10:44.424Z,1007.83
2023-02-22T09:11:44.603Z,1007.83
2023-02-22T09:12:44.423Z,1007.82
2023-02-22T09:13:44.348Z,1007.80
2023-02-22T09:14:44.377Z,1007.81
2023-02-22T09:15:44.368Z,1007.82
2023-02-22T09:16:44.391Z,1007.82
2023-02-22T09:17:44.312Z,1007.82
2023-02-22T09:18:44.732Z,1007.82
2023-02-22T09:19:44.352Z,1007.81
2023-02-22T09:20:44.279Z,1007.80
2023-02-22T09:21:44.279Z,1007.79
2023-02-22T09:22:44.251Z,1007.77
2023-02-22T09:23:44.268Z,1007.77
2023-02-22T09:24:44.248Z,1007.76
2023-02-22T09:25:44.289Z,1007.75
2023-02-22T09:26:44.263Z,1007.74
2023-02-22T09:27:44.321Z,1007.73
2023-02-22T09:28:44.210Z,1007.73
2023-02-22T09:29:44.187Z,1007.72
2023-02-22T09:30:44.211Z,1007.71
2023-02-22T09:31:44.266Z,1007.72
2023-02-22T09:32:44.437Z,1007.71
2023-02-22T09:33:45.865Z,1007.71
2023-02-22T09:34:44.132Z,1007.70
2023-02-22T09:35:44.133Z,1007.68
2023-02-22T09:36:44.205Z,1007.67
2023-02-22T09:37:44.129Z,1007.65
2023-02-22T09:38:44.136Z,1007.64
2023-02-22T09:39:44.142Z,1007.62
2023-02-22T09:40:44.109Z,1007.63
2023-02-22T09:41:44.088Z,1007.63
2023-02-22T09:42:44.103Z,1007.63
2023-02-22T09:43:44.068Z,1007.62
2023-02-22T09:44:44.053Z,1007.61
2023-02-22T09:45:44.177Z,1007.60
2023-02-22T09:46:44.044Z,1007.58
2023-02-22T09:47:44.037Z,1007.58
2023-02-22T09:48:44.014Z,1007.58
2023-02-22T09:49:43.981Z,1007.58
2023-02-22T09:50:43.996Z,1007.57
2023-02-22T09:51:44.013Z,1007.56
2023-02-22T09:52:44.014Z,1007.56
2023-02-22T09:53:43.961Z,1007.56
2023-02-22T09:54:43.973Z,1007.56
2023-02-22T09:55:43.957Z,1007.55
2023-02-22T09:56:43.975Z,1007.55
2023-02-22T09:57:43.921Z,1007.53
2023-02-22T09:58:43.943Z,1007.53
2023-02-22T09:59:43.882Z,1007.53
2023-02-22T10:00:43.944Z,1007.53
2023-02-22T10:01:43.851Z,1007.54
2023-02-22T10:02:43.915Z,1007.54
2023-02-22T10:03:43.928Z,1007.54
2023-02-22T10:04:43.853Z,1007.55
2023-02-22T10:05:43.905Z,1007.54
2023-02-22T10:06:43.859Z,1007.55
2023-02-22T10:07:43.868Z,1007.55
2023-02-22T10:08:43.826Z,1007.55
2023-02-22T10:09:43.807Z,1007.55
2023-02-22T10:10:43.764Z,1007.55
2023-02-22T10:11:43.761Z,1007.55
2023-02-22T10:12:43.756Z,1007.54
2023-02-22T10:13:43.767Z,1007.53
2023-02-22T10:14:44.156Z,1007.52
2023-02-22T10:15:43.749Z,1007.52
2023-02-22T10:16:43.734Z,1007.53
2023-02-22T10:17:43.705Z,1007.52
2023-02-22T10:18:43.695Z,1007.51
2023-02-22T10:19:43.724Z,1007.50
2023-02-22T10:20:43.676Z,1007.48
2023-02-22T10:21:43.666Z,1007.47
2023-02-22T10:22:43.678Z,1007.47
2023-02-22T10:23:43.681Z,1007.47
2023-02-22T10:24:43.675Z,1007.47
2023-02-22T10:25:43.666Z,1007.47
2023-02-22T10:26:43.659Z,1007.47
2023-02-22T10:27:43.612Z,1007.47
2023-02-22T10:28:43.608Z,1007.48
2023-02-22T10:29:43.585Z,1007.48
2023-02-22T10:30:43.643Z,1007.49
2023-02-22T10:31:43.595Z,1007.48
2023-02-22T10:32:44.187Z,1007.47
2023-02-22T10:33:43.540Z,1007.46
2023-02-22T10:34:43.612Z,1007.45
2023-02-22T10:35:45.945Z,1007.45
2023-02-22T10:36:43.550Z,1007.44
2023-02-22T10:37:43.558Z,1007.44
2023-02-22T10:38:43.515Z,1007.43
2023-02-22T10:39:43.522Z,1007.43
2023-02-22T10:40:43.499Z,1007.42
2023-02-22T10:41:43.465Z,1007.40
2023-02-22T10:42:43.493Z,1007.38
2023-02-22T10:43:43.441Z,1007.37
2023-02-22T10:44:43.433Z,1007.36
2023-02-22T10:45:43.440Z,1007.35
2023-02-22T10:46:43.436Z,1007.33
2023-02-22T10:47:43.377Z,1007.32
2023-02-22T10:48:43.446Z,1007.31
2023-02-22T10:49:43.368Z,1007.30
2023-02-22T10:50:43.358Z,1007.29
2023-02-22T10:51:43.369Z,1007.27
2023-02-22T10:52:43.349Z,1007.24
2023-02-22T10:53:43.316Z,1007.22
2023-02-22T10:54:43.324Z,1007.19
2023-02-22T10:55:43.323Z,1007.17
2023-02-22T10:56:43.319Z,1007.15
2023-02-22T10:57:43.277Z,1007.14
2023-02-22T10:58:43.273Z,1007.13
2023-02-22T10:59:43.254Z,1007.13
2023-02-22T11:00:44.232Z,1007.13
2023-02-22T11:01:43.347Z,1007.13
2023-02-22T11:02:43.231Z,1007.13
2023-02-22T11:03:43.234Z,1007.11
2023-02-22T11:04:43.253Z,1007.11
2023-02-22T11:05:43.204Z,1007.10
2023-02-22T11:06:43.228Z,1007.09
2023-02-22T11:07:43.221Z,1007.08
2023-02-22T11:08:43.173Z,1007.07
2023-02-22T11:09:43.140Z,1007.06
2023-02-22T11:10:43.216Z,1007.05
2023-02-22T11:11:43.196Z,1007.04
2023-02-22T11:12:43.174Z,1007.03
2023-02-22T11:13:43.129Z,1007.01
2023-02-22T11:14:43.142Z,1007.00
2023-02-22T11:15:43.156Z,1006.98
2023-02-22T11:16:43.185Z,1006.97
2023-02-22T11:17:43.100Z,1006.96
2023-02-22T11:18:43.098Z,1006.94
2023-02-22T11:19:43.069Z,1006.93
2023-02-22T11:20:43.049Z,1006.92
2023-02-22T11:21:43.038Z,1006.92
2023-02-22T11:22:43.067Z,1006.91
2023-02-22T11:23:44.801Z,1006.90
2023-02-22T11:24:49.090Z,1006.88
2023-02-22T11:25:42.999Z,1006.86
2023-02-22T11:26:43.007Z,1006.85
2023-02-22T11:27:42.979Z,1006.84
2023-02-22T11:28:43.006Z,1006.83
2023-02-22T11:29:43.002Z,1006.83
2023-02-22T11:30:43.061Z,1006.82
2023-02-22T11:31:43.010Z,1006.81
2023-02-22T11:32:42.928Z,1006.80
2023-02-22T11:33:42.941Z,1006.80
2023-02-22T11:34:42.920Z,1006.80
2023-02-22T11:35:42.912Z,1006.79
2023-02-22T11:36:42.881Z,1006.80
2023-02-22T11:37:42.880Z,1006.79
2023-02-22T11:38:42.889Z,1006.77
2023-02-22T11:39:42.908Z,1006.75
2023-02-22T11:40:42.860Z,1006.75
2023-02-22T11:41:42.847Z,1006.73
2023-02-22T11:42:42.822Z,1006.72
2023-02-22T11:43:42.804Z,1006.70
2023-02-22T11:44:42.856Z,1006.67
2023-02-22T11:45:52.842Z,1006.65
2023-02-22T11:46:42.867Z,1006.63
2023-02-22T11:47:42.811Z,1006.61
2023-02-22T11:48:42.785Z,1006.59
2023-02-22T11:49:42.766Z,1006.58
2023-02-22T11:50:42.744Z,1006.57
2023-02-22T11:51:42.727Z,1006.55
2023-02-22T11:52:42.740Z,1006.54
2023-02-22T11:53:42.700Z,1006.53
2023-02-22T11:54:42.722Z,1006.52
2023-02-22T11:55:43.623Z,1006.52
2023-02-22T11:56:43.044Z,1006.52
2023-02-22T11:57:42.673Z,1006.51
2023-02-22T11:58:42.715Z,1006.49
2023-02-22T11:59:42.646Z,1006.46
2023-02-22T12:00:42.624Z,1006.44
2023-02-22T12:01:42.621Z,1006.43
2023-02-22T12:02:51.819Z,1006.43
2023-02-22T12:03:42.727Z,1006.43
2023-02-22T12:04:42.718Z,1006.43
2023-02-22T12:05:42.668Z,1006.42